createdAt,value
2018-04-01T00:00:06.777Z,3.53
2018-04-01T00:01:06.786Z,3.62
2018-04-01T00:02:06.808Z,3.53
2018-04-01T00:03:06.823Z,3.50
2018-04-01T00:04:06.841Z,3.49
2018-04-01T00:05:06.858Z,3.63
2018-04-01T00:06:06.875Z,3.71
2018-04-01T00:07:06.891Z,3.67
2018-04-01T00:08:06.910Z,3.52
2018-04-01T00:09:06.928Z,3.53
2018-04-01T00:10:06.941Z,3.56
2018-04-01T00:11:06.963Z,3.67
2018-04-01T00:12:06.985Z,3.59
2018-04-01T00:13:06.995Z,3.62
2018-04-01T00:14:07.018Z,3.56
2018-04-01T00:15:07.031Z,3.50
2018-04-01T00:16:07.046Z,3.41
2018-04-01T00:17:07.069Z,3.53
2018-04-01T00:18:07.080Z,3.54
2018-04-01T00:19:07.104Z,3.53
2018-04-01T00:20:07.116Z,3.45
2018-04-01T00:21:07.133Z,3.71
2018-04-01T00:22:07.153Z,3.59
2018-04-01T00:23:07.172Z,3.46
2018-04-01T00:24:07.190Z,3.53
2018-04-01T00:25:07.204Z,3.44
2018-04-01T00:26:07.219Z,3.52
2018-04-01T00:27:07.236Z,3.46
2018-04-01T00:28:07.254Z,3.52
2018-04-01T00:29:07.269Z,3.52
2018-04-01T00:30:07.290Z,3.39
2018-04-01T00:31:07.303Z,3.50
2018-04-01T00:32:07.324Z,3.54
2018-04-01T00:33:07.338Z,3.45
2018-04-01T00:34:07.369Z,3.52
2018-04-01T00:35:07.374Z,3.45
2018-04-01T00:36:07.389Z,3.53
2018-04-01T00:37:07.412Z,3.62
2018-04-01T00:38:07.428Z,3.52
2018-04-01T00:39:07.444Z,3.57
2018-04-01T00:40:07.459Z,3.46
2018-04-01T00:41:07.482Z,3.72
2018-04-01T00:42:07.503Z,3.63
2018-04-01T00:43:07.512Z,3.70
2018-04-01T00:44:07.528Z,3.63
2018-04-01T00:45:07.547Z,3.70
2018-04-01T00:46:07.565Z,3.72
2018-04-01T00:47:07.582Z,3.70
2018-04-01T00:48:07.599Z,3.67
2018-04-01T00:49:07.621Z,3.68
2018-04-01T00:50:07.637Z,3.72
2018-04-01T00:51:07.649Z,3.68
2018-04-01T00:52:07.663Z,3.59
2018-04-01T00:53:07.684Z,3.59
2018-04-01T00:54:07.698Z,3.62
2018-04-01T00:55:07.723Z,3.64
2018-04-01T00:56:07.733Z,3.67
2018-04-01T00:57:07.758Z,3.70
2018-04-01T00:58:07.768Z,3.68
2018-04-01T00:59:07.787Z,3.72
2018-04-01T01:00:07.809Z,3.62
2018-04-01T01:01:07.822Z,3.68
2018-04-01T01:02:07.839Z,3.64
2018-04-01T01:03:07.857Z,3.60
2018-04-01T01:04:07.876Z,3.53
2018-04-01T01:05:07.893Z,3.49
2018-04-01T01:06:07.906Z,3.52
2018-04-01T01:07:07.931Z,3.34
2018-04-01T01:08:07.940Z,3.52
2018-04-01T01:09:07.958Z,3.34
2018-04-01T01:10:07.981Z,3.45
2018-04-01T01:11:07.990Z,3.34
2018-04-01T01:12:08.016Z,3.37
2018-04-01T01:13:08.025Z,3.49
2018-04-01T01:14:08.051Z,3.37
2018-04-01T01:15:08.064Z,3.49
2018-04-01T01:16:08.082Z,3.44
2018-04-01T01:17:08.100Z,3.64
2018-04-01T01:18:08.120Z,3.41
2018-04-01T01:19:08.131Z,3.50
2018-04-01T01:20:08.157Z,3.53
2018-04-01T01:21:08.164Z,3.57
2018-04-01T01:22:08.183Z,3.59
2018-04-01T01:23:08.198Z,3.60
2018-04-01T01:24:08.216Z,3.74
2018-04-01T01:25:08.236Z,3.62
2018-04-01T01:26:08.257Z,3.64
2018-04-01T01:27:08.268Z,3.60
2018-04-01T01:28:08.290Z,3.63
2018-04-01T01:29:08.306Z,3.62
2018-04-01T01:30:08.323Z,3.62
2018-04-01T01:31:08.337Z,3.49
2018-04-01T01:32:08.355Z,3.57
2018-04-01T01:33:08.375Z,3.70
2018-04-01T01:34:08.391Z,3.67
2018-04-01T01:35:08.405Z,3.82
2018-04-01T01:36:08.427Z,3.78
2018-04-01T01:37:08.440Z,3.67
2018-04-01T01:38:08.464Z,3.70
2018-04-01T01:39:08.476Z,3.59
2018-04-01T01:40:08.499Z,3.56
2018-04-01T01:41:08.511Z,3.60
2018-04-01T01:42:08.529Z,3.60
2018-04-01T01:43:08.545Z,3.46
2018-04-01T01:44:08.559Z,3.54
2018-04-01T01:45:08.582Z,3.63
2018-04-01T01:46:08.596Z,3.64
2018-04-01T01:47:08.617Z,3.60
2018-04-01T01:48:08.630Z,3.62
2018-04-01T01:49:08.653Z,3.50
2018-04-01T01:50:08.674Z,3.45
2018-04-01T01:51:08.679Z,3.54
2018-04-01T01:52:08.699Z,3.50
2018-04-01T01:53:08.715Z,3.54
2018-04-01T01:54:08.733Z,3.49
2018-04-01T01:55:08.751Z,3.46
2018-04-01T01:56:08.769Z,3.41
2018-04-01T01:57:08.784Z,3.44
2018-04-01T01:58:08.809Z,3.42
2018-04-01T01:59:08.823Z,3.49
2018-04-01T02:00:08.838Z,3.33
2018-04-01T02:01:08.858Z,3.35
2018-04-01T02:02:08.935Z,3.44
2018-04-01T02:03:08.888Z,3.45
2018-04-01T02:04:08.906Z,3.50
2018-04-01T02:05:08.923Z,3.50
2018-04-01T02:06:08.939Z,3.56
2018-04-01T02:07:08.954Z,3.52
2018-04-01T02:08:09.012Z,3.52
2018-04-01T02:09:08.998Z,3.59
2018-04-01T02:10:09.015Z,3.56
2018-04-01T02:11:09.027Z,3.56
2018-04-01T02:12:09.043Z,3.49
2018-04-01T02:13:09.059Z,3.56
2018-04-01T02:14:09.079Z,3.62
2018-04-01T02:15:09.107Z,3.59
2018-04-01T02:16:09.109Z,3.54
2018-04-01T02:17:09.132Z,3.46
2018-04-01T02:18:09.153Z,3.49
2018-04-01T02:19:09.159Z,3.63
2018-04-01T02:20:09.183Z,3.63
2018-04-01T02:21:09.202Z,3.50
2018-04-01T02:22:09.216Z,3.50
2018-04-01T02:23:09.229Z,3.46
2018-04-01T02:24:09.247Z,3.64
2018-04-01T02:25:09.272Z,3.53
2018-04-01T02:26:09.282Z,3.46
2018-04-01T02:27:09.308Z,3.49
2018-04-01T02:28:09.322Z,3.49
2018-04-01T02:29:09.333Z,3.39
2018-04-01T02:30:09.355Z,3.49
2018-04-01T02:31:09.385Z,3.52
2018-04-01T02:32:09.398Z,3.53
2018-04-01T02:33:09.404Z,3.45
2018-04-01T02:34:09.427Z,3.50
2018-04-01T02:35:09.443Z,3.56
2018-04-01T02:36:09.457Z,3.59
2018-04-01T02:37:09.478Z,3.62
2018-04-01T02:38:09.500Z,3.60
2018-04-01T02:39:09.509Z,3.49
2018-04-01T02:40:09.523Z,3.49
2018-04-01T02:41:09.547Z,3.37
2018-04-01T02:42:09.561Z,3.46
2018-04-01T02:43:09.582Z,3.54
2018-04-01T02:44:09.592Z,3.67
2018-04-01T02:45:09.607Z,3.53
2018-04-01T02:46:09.626Z,3.63
2018-04-01T02:47:09.656Z,3.57
2018-04-01T02:48:09.715Z,3.71
2018-04-01T02:49:09.679Z,3.74
2018-04-01T02:50:09.692Z,3.75
2018-04-01T02:51:09.710Z,3.74
2018-04-01T02:52:09.731Z,3.62
2018-04-01T02:53:09.742Z,3.59
2018-04-01T02:54:09.767Z,3.57
2018-04-01T02:55:09.784Z,3.72
2018-04-01T02:56:09.792Z,3.63
2018-04-01T02:57:09.818Z,3.59
2018-04-01T02:58:09.839Z,3.71
2018-04-01T02:59:09.851Z,3.70
2018-04-01T03:00:09.868Z,3.67
2018-04-01T03:01:09.887Z,3.64
2018-04-01T03:02:09.906Z,3.59
2018-04-01T03:03:09.922Z,3.64
2018-04-01T03:04:09.938Z,3.62
2018-04-01T03:05:09.964Z,3.57
2018-04-01T03:06:09.975Z,3.78
2018-04-01T03:07:09.994Z,3.68
2018-04-01T03:08:10.004Z,3.77
2018-04-01T03:09:10.021Z,3.67
2018-04-01T03:10:10.038Z,3.74
2018-04-01T03:11:10.110Z,3.53
2018-04-01T03:12:10.071Z,3.63
2018-04-01T03:13:10.086Z,3.62
2018-04-01T03:14:10.107Z,3.67
2018-04-01T03:15:10.122Z,3.52
2018-04-01T03:16:10.144Z,3.64
2018-04-01T03:17:10.154Z,3.62
2018-04-01T03:18:10.172Z,3.67
2018-04-01T03:19:10.198Z,3.68
2018-04-01T03:20:10.215Z,3.75
2018-04-01T03:21:10.225Z,3.67
2018-04-01T03:22:10.244Z,3.68
2018-04-01T03:23:10.263Z,3.74
2018-04-01T03:24:10.275Z,3.67
2018-04-01T03:25:10.294Z,3.56
2018-04-01T03:26:10.315Z,3.63
2018-04-01T03:27:10.334Z,3.54
2018-04-01T03:28:10.349Z,3.53
2018-04-01T03:29:10.362Z,3.39
2018-04-01T03:30:10.386Z,3.45
2018-04-01T03:31:10.405Z,3.46
2018-04-01T03:32:10.420Z,3.28
2018-04-01T03:33:10.429Z,3.25
2018-04-01T03:34:10.451Z,3.16
2018-04-01T03:35:10.472Z,3.19
2018-04-01T03:36:10.484Z,3.28
2018-04-01T03:37:10.508Z,3.23
2018-04-01T03:38:10.522Z,3.28
2018-04-01T03:39:10.539Z,3.34
2018-04-01T03:40:10.554Z,3.30
2018-04-01T03:41:10.573Z,3.39
2018-04-01T03:42:10.592Z,3.45
2018-04-01T03:43:10.607Z,3.53
2018-04-01T03:44:10.620Z,3.52
2018-04-01T03:45:10.634Z,3.62
2018-04-01T03:46:10.654Z,3.52
2018-04-01T03:47:10.673Z,3.49
2018-04-01T03:48:10.690Z,3.46
2018-04-01T03:49:10.709Z,3.52
2018-04-01T03:50:10.722Z,3.50
2018-04-01T03:51:10.749Z,3.56
2018-04-01T03:52:10.766Z,3.50
2018-04-01T03:53:10.778Z,3.52
2018-04-01T03:54:10.789Z,3.46
2018-04-01T03:55:10.820Z,3.52
2018-04-01T03:56:10.824Z,3.60
2018-04-01T03:57:10.843Z,3.57
2018-04-01T03:58:10.861Z,3.46
2018-04-01T03:59:10.879Z,3.45
2018-04-01T04:00:10.891Z,3.33
2018-04-01T04:01:10.917Z,3.42
2018-04-01T04:02:10.938Z,3.46
2018-04-01T04:03:10.945Z,3.50
2018-04-01T04:04:10.959Z,3.60
2018-04-01T04:05:10.976Z,3.50
2018-04-01T04:06:10.998Z,3.44
2018-04-01T04:07:11.011Z,3.52
2018-04-01T04:08:11.037Z,3.49
2018-04-01T04:09:11.042Z,3.52
2018-04-01T04:10:11.064Z,3.44
2018-04-01T04:11:11.080Z,3.42
2018-04-01T04:12:11.093Z,3.39
2018-04-01T04:13:11.111Z,3.49
2018-04-01T04:14:11.133Z,3.52
2018-04-01T04:15:11.150Z,3.60
2018-04-01T04:16:11.174Z,3.60
2018-04-01T04:17:11.179Z,3.50
2018-04-01T04:18:11.204Z,3.53
2018-04-01T04:19:11.215Z,3.49
2018-04-01T04:20:11.236Z,3.46
2018-04-01T04:21:11.253Z,3.50
2018-04-01T04:22:11.267Z,3.59
2018-04-01T04:23:11.286Z,3.52
2018-04-01T04:24:11.312Z,3.59
2018-04-01T04:25:11.319Z,3.60
2018-04-01T04:26:11.338Z,3.46
2018-04-01T04:27:11.348Z,3.50
2018-04-01T04:28:11.367Z,3.57
2018-04-01T04:29:11.388Z,3.63
2018-04-01T04:30:11.410Z,3.49
2018-04-01T04:31:11.420Z,3.52
2018-04-01T04:32:11.440Z,3.49
2018-04-01T04:33:11.453Z,3.64
2018-04-01T04:34:11.474Z,3.52
2018-04-01T04:35:11.490Z,3.52
2018-04-01T04:36:11.506Z,3.42
2018-04-01T04:37:11.527Z,3.53
2018-04-01T04:38:11.535Z,3.49
2018-04-01T04:39:11.556Z,3.28
2018-04-01T04:40:11.575Z,3.42
2018-04-01T04:41:11.590Z,3.50
2018-04-01T04:42:11.605Z,3.42
2018-04-01T04:43:11.625Z,3.52
2018-04-01T04:44:11.640Z,3.52
2018-04-01T04:45:11.658Z,3.44
2018-04-01T04:46:11.679Z,3.49
2018-04-01T04:47:11.694Z,3.50
2018-04-01T04:48:11.711Z,3.50
2018-04-01T04:49:11.728Z,3.49
2018-04-01T04:50:11.747Z,3.53
2018-04-01T04:51:11.765Z,3.50
2018-04-01T04:52:11.775Z,3.59
2018-04-01T04:53:11.807Z,3.60
2018-04-01T04:54:11.815Z,3.49
2018-04-01T04:55:11.827Z,3.44
2018-04-01T04:56:11.848Z,3.42
2018-04-01T04:57:11.867Z,3.45
2018-04-01T04:58:11.877Z,3.41
2018-04-01T04:59:11.895Z,3.46
2018-04-01T05:00:11.921Z,3.49
2018-04-01T05:01:11.935Z,3.49
2018-04-01T05:02:11.951Z,3.46
2018-04-01T05:03:11.964Z,3.52
2018-04-01T05:04:11.978Z,3.57
2018-04-01T05:05:11.994Z,3.70
2018-04-01T05:06:12.015Z,3.59
2018-04-01T05:07:12.035Z,3.62
2018-04-01T05:08:12.048Z,3.50
2018-04-01T05:09:12.065Z,3.50
2018-04-01T05:10:12.090Z,3.50
2018-04-01T05:11:12.106Z,3.46
2018-04-01T05:12:12.115Z,3.59
2018-04-01T05:13:12.137Z,3.67
2018-04-01T05:14:12.154Z,3.68
2018-04-01T05:15:12.173Z,3.67
2018-04-01T05:16:12.187Z,3.59
2018-04-01T05:17:12.204Z,3.49
2018-04-01T05:18:12.222Z,3.45
2018-04-01T05:19:12.234Z,3.50
2018-04-01T05:20:12.258Z,3.45
2018-04-01T05:21:12.272Z,3.52
2018-04-01T05:22:12.321Z,3.52
2018-04-01T05:23:12.310Z,3.50
2018-04-01T05:24:12.330Z,3.39
2018-04-01T05:25:12.338Z,3.50
2018-04-01T05:26:12.358Z,3.37
2018-04-01T05:27:12.372Z,3.31
2018-04-01T05:28:12.396Z,3.26
2018-04-01T05:29:12.407Z,3.22
2018-04-01T05:30:12.427Z,3.17
2018-04-01T05:31:12.438Z,3.41
2018-04-01T05:32:12.457Z,3.44
2018-04-01T05:33:12.476Z,3.28
2018-04-01T05:34:12.493Z,3.44
2018-04-01T05:35:12.507Z,3.39
2018-04-01T05:36:12.523Z,3.44
2018-04-01T05:37:12.540Z,3.50
2018-04-01T05:38:12.560Z,3.46
2018-04-01T05:39:12.581Z,3.42
2018-04-01T05:40:12.591Z,3.46
2018-04-01T05:41:12.618Z,3.35
2018-04-01T05:42:12.630Z,3.50
2018-04-01T05:43:12.647Z,3.52
2018-04-01T05:44:12.708Z,3.50
2018-04-01T05:45:12.683Z,3.39
2018-04-01T05:46:12.701Z,3.42
2018-04-01T05:47:12.711Z,3.35
2018-04-01T05:48:12.727Z,3.50
2018-04-01T05:49:12.746Z,3.45
2018-04-01T05:50:12.762Z,3.49
2018-04-01T05:51:12.779Z,3.50
2018-04-01T05:52:12.800Z,3.57
2018-04-01T05:53:12.815Z,3.59
2018-04-01T05:54:12.833Z,3.60
2018-04-01T05:55:12.851Z,3.56
2018-04-01T05:56:12.872Z,3.53
2018-04-01T05:57:12.880Z,3.45
2018-04-01T05:58:12.905Z,3.35
2018-04-01T05:59:12.919Z,3.46
2018-04-01T06:00:12.930Z,3.44
2018-04-01T06:01:12.954Z,3.46
2018-04-01T06:02:12.966Z,3.49
2018-04-01T06:03:12.987Z,3.53
2018-04-01T06:04:13.001Z,3.59
2018-04-01T06:05:13.015Z,3.53
2018-04-01T06:06:13.036Z,3.74
2018-04-01T06:07:13.063Z,3.81
2018-04-01T06:08:13.070Z,3.81
2018-04-01T06:09:13.090Z,3.89
2018-04-01T06:10:13.108Z,4.00
2018-04-01T06:11:13.120Z,3.95
2018-04-01T06:12:13.171Z,3.93
2018-04-01T06:13:13.155Z,3.89
2018-04-01T06:14:13.179Z,3.92
2018-04-01T06:15:13.190Z,3.95
2018-04-01T06:16:13.209Z,4.02
2018-04-01T06:17:13.226Z,4.02
2018-04-01T06:18:13.242Z,3.96
2018-04-01T06:19:13.259Z,3.93
2018-04-01T06:20:13.276Z,3.86
2018-04-01T06:21:13.294Z,3.82
2018-04-01T06:22:13.315Z,3.70
2018-04-01T06:23:13.330Z,3.70
2018-04-01T06:24:13.358Z,3.74
2018-04-01T06:25:13.368Z,3.78
2018-04-01T06:26:13.378Z,3.78
2018-04-01T06:27:13.395Z,3.62
2018-04-01T06:28:13.414Z,3.81
2018-04-01T06:29:13.428Z,3.77
2018-04-01T06:30:13.450Z,3.70
2018-04-01T06:31:13.464Z,3.75
2018-04-01T06:32:13.484Z,3.89
2018-04-01T06:33:13.502Z,3.82
2018-04-01T06:34:13.520Z,3.88
2018-04-01T06:35:13.542Z,3.88
2018-04-01T06:36:13.558Z,3.93
2018-04-01T06:37:13.572Z,3.92
2018-04-01T06:38:13.590Z,3.95
2018-04-01T06:39:13.603Z,3.89
2018-04-01T06:40:13.627Z,3.93
2018-04-01T06:41:13.643Z,3.84
2018-04-01T06:42:13.658Z,3.80
2018-04-01T06:43:13.678Z,3.82
2018-04-01T06:44:13.742Z,3.81
2018-04-01T06:45:13.713Z,3.82
2018-04-01T06:46:13.732Z,3.89
2018-04-01T06:47:13.743Z,3.90
2018-04-01T06:48:13.762Z,3.80
2018-04-01T06:49:13.778Z,3.92
2018-04-01T06:50:13.797Z,4.04
2018-04-01T06:51:13.815Z,4.10
2018-04-01T06:52:13.837Z,4.11
2018-04-01T06:53:13.849Z,4.16
2018-04-01T06:54:13.868Z,4.18
2018-04-01T06:55:13.883Z,4.21
2018-04-01T06:56:13.898Z,4.20
2018-04-01T06:57:13.918Z,4.35
2018-04-01T06:58:13.938Z,4.17
2018-04-01T06:59:13.952Z,4.11
2018-04-01T07:00:13.976Z,4.11
2018-04-01T07:01:13.990Z,4.11
2018-04-01T07:02:14.011Z,4.21
2018-04-01T07:03:14.027Z,4.32
2018-04-01T07:04:14.042Z,4.31
2018-04-01T07:05:14.064Z,4.39
2018-04-01T07:06:14.092Z,4.25
2018-04-01T07:07:14.102Z,4.28
2018-04-01T07:08:14.112Z,4.17
2018-04-01T07:09:14.138Z,4.34
2018-04-01T07:10:14.152Z,4.36
2018-04-01T07:11:14.168Z,4.26
2018-04-01T07:12:14.207Z,4.44
2018-04-01T07:13:14.206Z,4.42
2018-04-01T07:14:14.223Z,4.28
2018-04-01T07:15:14.238Z,4.24
2018-04-01T07:16:14.263Z,4.17
2018-04-01T07:17:14.281Z,4.18
2018-04-01T07:18:14.291Z,4.21
2018-04-01T07:19:14.312Z,4.38
2018-04-01T07:20:14.326Z,4.26
2018-04-01T07:21:14.345Z,4.35
2018-04-01T07:22:14.370Z,4.44
2018-04-01T07:23:14.382Z,4.47
2018-04-01T07:24:14.397Z,4.42
2018-04-01T07:25:14.421Z,4.44
2018-04-01T07:26:14.437Z,4.28
2018-04-01T07:27:14.456Z,4.26
2018-04-01T07:28:14.472Z,4.28
2018-04-01T07:29:14.493Z,4.31
2018-04-01T07:30:14.509Z,4.36
2018-04-01T07:31:14.529Z,4.46
2018-04-01T07:32:14.545Z,4.43
2018-04-01T07:33:14.560Z,4.64
2018-04-01T07:34:14.580Z,4.71
2018-04-01T07:35:14.598Z,4.67
2018-04-01T07:36:14.623Z,4.67
2018-04-01T07:37:14.634Z,4.77
2018-04-01T07:38:14.653Z,4.69
2018-04-01T07:39:14.669Z,4.69
2018-04-01T07:40:14.684Z,4.74
2018-04-01T07:41:14.709Z,4.80
2018-04-01T07:42:14.727Z,4.75
2018-04-01T07:43:14.742Z,4.83
2018-04-01T07:44:14.755Z,4.93
2018-04-01T07:45:14.777Z,5.04
2018-04-01T07:46:14.798Z,4.96
2018-04-01T07:47:14.815Z,4.94
2018-04-01T07:48:14.839Z,5.05
2018-04-01T07:49:14.850Z,5.09
2018-04-01T07:50:14.870Z,4.91
2018-04-01T07:51:14.885Z,4.94
2018-04-01T07:52:14.905Z,5.06
2018-04-01T07:53:14.928Z,5.12
2018-04-01T07:54:14.948Z,5.09
2018-04-01T07:55:14.964Z,5.04
2018-04-01T07:56:14.987Z,4.96
2018-04-01T07:57:14.999Z,5.04
2018-04-01T07:58:15.018Z,4.99
2018-04-01T07:59:15.039Z,5.15
2018-04-01T08:00:15.060Z,5.11
2018-04-01T08:01:15.069Z,5.04
2018-04-01T08:02:15.094Z,5.09
2018-04-01T08:03:15.108Z,5.06
2018-04-01T08:04:15.125Z,5.11
2018-04-01T08:05:15.144Z,5.26
2018-04-01T08:06:15.173Z,5.35
2018-04-01T08:07:15.191Z,5.38
2018-04-01T08:08:15.203Z,5.24
2018-04-01T08:09:15.224Z,5.12
2018-04-01T08:10:15.239Z,5.11
2018-04-01T08:11:15.255Z,5.29
2018-04-01T08:12:15.275Z,5.30
2018-04-01T08:13:15.297Z,5.26
2018-04-01T08:14:15.323Z,5.23
2018-04-01T08:15:15.333Z,5.27
2018-04-01T08:16:15.355Z,5.29
2018-04-01T08:17:15.368Z,5.12
2018-04-01T08:18:15.389Z,5.20
2018-04-01T08:19:15.411Z,5.22
2018-04-01T08:20:15.427Z,5.17
2018-04-01T08:21:15.447Z,5.20
2018-04-01T08:22:15.464Z,5.19
2018-04-01T08:23:15.493Z,5.20
2018-04-01T08:24:15.505Z,5.15
2018-04-01T08:25:15.520Z,5.22
2018-04-01T08:26:15.538Z,5.29
2018-04-01T08:27:15.557Z,5.12
2018-04-01T08:28:15.579Z,5.19
2018-04-01T08:29:15.602Z,4.97
2018-04-01T08:30:15.612Z,4.99
2018-04-01T08:31:15.634Z,5.06
2018-04-01T08:32:15.705Z,5.04
2018-04-01T08:33:15.672Z,5.01
2018-04-01T08:34:15.722Z,5.19
2018-04-01T08:35:15.708Z,5.30
2018-04-01T08:36:15.727Z,5.47
2018-04-01T08:37:15.751Z,5.38
2018-04-01T08:38:15.768Z,5.24
2018-04-01T08:39:15.791Z,5.37
2018-04-01T08:40:15.801Z,5.56
2018-04-01T08:41:15.823Z,5.41
2018-04-01T08:42:15.841Z,5.52
2018-04-01T08:43:15.862Z,5.56
2018-04-01T08:44:15.878Z,5.48
2018-04-01T08:45:15.897Z,5.66
2018-04-01T08:46:15.918Z,5.81
2018-04-01T08:47:15.940Z,5.77
2018-04-01T08:48:15.960Z,6.06
2018-04-01T08:49:15.970Z,6.08
2018-04-01T08:50:15.996Z,6.06
2018-04-01T08:51:16.011Z,5.88
2018-04-01T08:52:16.034Z,5.69
2018-04-01T08:53:16.089Z,5.52
2018-04-01T08:54:16.074Z,5.32
2018-04-01T08:55:16.085Z,5.23
2018-04-01T08:56:16.109Z,4.97
2018-04-01T08:57:16.125Z,4.94
2018-04-01T08:58:16.145Z,4.90
2018-04-01T08:59:16.289Z,4.84
2018-04-01T09:00:16.181Z,4.90
2018-04-01T09:01:16.205Z,4.93
2018-04-01T09:02:16.226Z,5.09
2018-04-01T09:03:16.240Z,5.26
2018-04-01T09:04:16.271Z,5.35
2018-04-01T09:05:16.280Z,5.37
2018-04-01T09:06:16.308Z,5.55
2018-04-01T09:07:16.315Z,5.59
2018-04-01T09:08:16.338Z,5.73
2018-04-01T09:09:16.355Z,5.85
2018-04-01T09:10:16.380Z,6.06
2018-04-01T09:11:16.399Z,6.25
2018-04-01T09:12:16.414Z,6.40
2018-04-01T09:13:16.433Z,6.73
2018-04-01T09:14:16.449Z,6.87
2018-04-01T09:15:16.473Z,6.94
2018-04-01T09:16:16.499Z,7.01
2018-04-01T09:17:16.509Z,7.07
2018-04-01T09:18:16.525Z,6.76
2018-04-01T09:19:16.551Z,6.63
2018-04-01T09:20:16.571Z,6.19
2018-04-01T09:21:16.590Z,5.96
2018-04-01T09:22:16.634Z,5.84
2018-04-01T09:23:16.637Z,5.78
2018-04-01T09:24:16.648Z,5.96
2018-04-01T09:25:16.666Z,6.05
2018-04-01T09:26:16.690Z,6.21
2018-04-01T09:27:16.706Z,6.40
2018-04-01T09:28:16.733Z,6.73
2018-04-01T09:29:16.750Z,6.79
2018-04-01T09:30:16.768Z,6.83
2018-04-01T09:31:16.787Z,6.97
2018-04-01T09:32:16.814Z,7.04
2018-04-01T09:33:16.827Z,7.26
2018-04-01T09:34:16.864Z,7.16
2018-04-01T09:35:16.860Z,6.97
2018-04-01T09:36:16.895Z,6.64
2018-04-01T09:37:16.909Z,6.35
2018-04-01T09:38:16.924Z,6.13
2018-04-01T09:39:16.942Z,6.14
2018-04-01T09:40:16.963Z,5.98
2018-04-01T09:41:16.982Z,5.99
2018-04-01T09:42:17.004Z,6.13
2018-04-01T09:43:17.022Z,6.11
2018-04-01T09:44:17.043Z,6.24
2018-04-01T09:45:17.067Z,6.27
2018-04-01T09:46:17.083Z,6.48
2018-04-01T09:47:17.103Z,6.69
2018-04-01T09:48:17.128Z,6.75
2018-04-01T09:49:17.156Z,6.73
2018-04-01T09:50:17.162Z,6.65
2018-04-01T09:51:17.186Z,6.48
2018-04-01T09:52:17.208Z,6.32
2018-04-01T09:53:17.222Z,6.16
2018-04-01T09:54:17.255Z,5.85
2018-04-01T09:55:17.272Z,5.67
2018-04-01T09:56:17.343Z,5.48
2018-04-01T09:57:17.312Z,5.40
2018-04-01T09:58:17.328Z,5.30
2018-04-01T09:59:17.356Z,5.29
2018-04-01T10:00:17.367Z,5.58
2018-04-01T10:01:17.395Z,5.73
2018-04-01T10:02:17.411Z,6.10
2018-04-01T10:03:17.435Z,6.32
2018-04-01T10:04:17.452Z,6.64
2018-04-01T10:05:17.465Z,6.91
2018-04-01T10:06:17.490Z,7.09
2018-04-01T10:07:17.508Z,7.30
2018-04-01T10:08:17.525Z,7.34
2018-04-01T10:09:17.547Z,7.42
2018-04-01T10:10:17.565Z,7.16
2018-04-01T10:11:17.586Z,6.99
2018-04-01T10:12:17.606Z,6.87
2018-04-01T10:13:17.632Z,6.64
2018-04-01T10:14:17.647Z,6.53
2018-04-01T10:15:17.665Z,6.39
2018-04-01T10:16:17.690Z,6.28
2018-04-01T10:17:17.718Z,6.14
2018-04-01T10:18:17.732Z,6.38
2018-04-01T10:19:17.747Z,6.45
2018-04-01T10:20:17.828Z,6.73
2018-04-01T10:21:17.792Z,6.86
2018-04-01T10:22:17.812Z,7.01
2018-04-01T10:23:17.832Z,7.16
2018-04-01T10:24:17.854Z,7.26
2018-04-01T10:25:17.869Z,7.15
2018-04-01T10:26:17.891Z,7.34
2018-04-01T10:27:17.908Z,7.23
2018-04-01T10:28:17.941Z,7.29
2018-04-01T10:29:17.947Z,7.27
2018-04-01T10:30:17.974Z,7.32
2018-04-01T10:31:17.990Z,7.21
2018-04-01T10:32:18.060Z,7.16
2018-04-01T10:33:18.039Z,7.00
2018-04-01T10:34:18.056Z,6.90
2018-04-01T10:35:18.080Z,6.53
2018-04-01T10:36:18.106Z,6.42
2018-04-01T10:37:18.115Z,6.50
2018-04-01T10:38:18.136Z,6.35
2018-04-01T10:39:18.160Z,6.13
2018-04-01T10:40:18.174Z,6.10
2018-04-01T10:41:18.198Z,5.92
2018-04-01T10:42:18.216Z,5.95
2018-04-01T10:43:18.299Z,6.08
2018-04-01T10:44:18.256Z,6.16
2018-04-01T10:45:18.282Z,6.35
2018-04-01T10:46:18.302Z,6.40
2018-04-01T10:47:18.326Z,6.42
2018-04-01T10:48:18.339Z,6.33
2018-04-01T10:49:18.364Z,6.30
2018-04-01T10:50:18.385Z,6.38
2018-04-01T10:51:18.398Z,6.45
2018-04-01T10:52:18.420Z,6.25
2018-04-01T10:53:18.438Z,6.30
2018-04-01T10:54:18.476Z,6.25
2018-04-01T10:55:18.478Z,6.38
2018-04-01T10:56:18.502Z,6.30
2018-04-01T10:57:18.522Z,6.33
2018-04-01T10:58:18.538Z,6.42
2018-04-01T10:59:18.566Z,6.40
2018-04-01T11:00:18.579Z,6.39
2018-04-01T11:01:18.600Z,6.39
2018-04-01T11:02:18.618Z,6.46
2018-04-01T11:03:18.642Z,6.63
2018-04-01T11:04:18.657Z,6.48
2018-04-01T11:05:18.678Z,6.38
2018-04-01T11:06:18.699Z,6.33
2018-04-01T11:07:18.719Z,6.32
2018-04-01T11:08:18.743Z,6.24
2018-04-01T11:09:18.758Z,6.25
2018-04-01T11:10:18.782Z,6.28
2018-04-01T11:11:18.794Z,6.16
2018-04-01T11:12:18.819Z,6.08
2018-04-01T11:13:18.834Z,6.06
2018-04-01T11:14:18.858Z,5.93
2018-04-01T11:15:18.877Z,5.70
2018-04-01T11:16:18.897Z,5.59
2018-04-01T11:17:18.914Z,5.74
2018-04-01T11:18:18.932Z,5.66
2018-04-01T11:19:18.964Z,5.69
2018-04-01T11:20:18.987Z,5.66
2018-04-01T11:21:18.994Z,5.58
2018-04-01T11:22:19.012Z,5.69
2018-04-01T11:23:19.031Z,5.52
2018-04-01T11:24:19.058Z,5.45
2018-04-01T11:25:19.078Z,5.42
2018-04-01T11:26:19.091Z,5.51
2018-04-01T11:27:19.107Z,5.49
2018-04-01T11:28:19.132Z,5.47
2018-04-01T11:29:19.145Z,5.51
2018-04-01T11:30:19.163Z,5.55
2018-04-01T11:31:19.187Z,5.56
2018-04-01T11:32:19.216Z,5.45
2018-04-01T11:33:19.230Z,5.49
2018-04-01T11:34:19.248Z,5.35
2018-04-01T11:35:19.277Z,5.38
2018-04-01T11:36:19.280Z,5.58
2018-04-01T11:37:19.303Z,5.56
2018-04-01T11:38:19.318Z,5.52
2018-04-01T11:39:19.341Z,5.60
2018-04-01T11:40:19.356Z,5.84
2018-04-01T11:41:19.376Z,5.99
2018-04-01T11:42:19.393Z,6.03
2018-04-01T11:43:19.411Z,6.16
2018-04-01T11:44:19.434Z,6.25
2018-04-01T11:45:19.457Z,6.45
2018-04-01T11:46:19.476Z,6.75
2018-04-01T11:47:19.491Z,6.86
2018-04-01T11:48:19.507Z,6.94
2018-04-01T11:49:19.531Z,7.00
2018-04-01T11:50:19.550Z,6.99
2018-04-01T11:51:19.566Z,6.73
2018-04-01T11:52:19.590Z,6.43
2018-04-01T11:53:19.605Z,6.46
2018-04-01T11:54:19.626Z,6.32
2018-04-01T11:55:19.646Z,6.19
2018-04-01T11:56:19.668Z,6.14
2018-04-01T11:57:19.689Z,6.06
2018-04-01T11:58:19.708Z,6.06
2018-04-01T11:59:19.722Z,6.05
2018-04-01T12:00:19.750Z,5.99
2018-04-01T12:01:19.762Z,5.98
2018-04-01T12:02:19.785Z,5.96
2018-04-01T12:03:19.801Z,5.99
2018-04-01T12:04:19.825Z,5.95
2018-04-01T12:05:19.844Z,5.93
2018-04-01T12:06:19.863Z,6.05
2018-04-01T12:07:19.894Z,6.05
2018-04-01T12:08:19.909Z,6.13
2018-04-01T12:09:19.920Z,6.13
2018-04-01T12:10:19.939Z,5.98
2018-04-01T12:11:19.967Z,6.06
2018-04-01T12:12:19.984Z,6.08
2018-04-01T12:13:19.998Z,6.08
2018-04-01T12:14:20.053Z,6.27
2018-04-01T12:15:20.038Z,6.28
2018-04-01T12:16:20.059Z,6.36
2018-04-01T12:17:20.078Z,6.35
2018-04-01T12:18:20.137Z,6.50
2018-04-01T12:19:20.115Z,6.50
2018-04-01T12:20:20.135Z,6.39
2018-04-01T12:21:20.154Z,6.38
2018-04-01T12:22:20.177Z,6.42
2018-04-01T12:23:20.195Z,6.21
2018-04-01T12:24:20.214Z,6.20
2018-04-01T12:25:20.234Z,6.27
2018-04-01T12:26:20.252Z,6.14
2018-04-01T12:27:20.286Z,6.28
2018-04-01T12:28:20.290Z,6.32
2018-04-01T12:29:20.312Z,6.30
2018-04-01T12:30:20.329Z,6.21
2018-04-01T12:31:20.351Z,6.20
2018-04-01T12:32:20.368Z,6.21
2018-04-01T12:33:20.389Z,6.28
2018-04-01T12:34:20.408Z,6.24
2018-04-01T12:35:20.429Z,6.13
2018-04-01T12:36:20.447Z,6.13
2018-04-01T12:37:20.463Z,6.13
2018-04-01T12:38:20.484Z,6.06
2018-04-01T12:39:20.506Z,6.06
2018-04-01T12:40:20.529Z,6.06
2018-04-01T12:41:20.543Z,5.92
2018-04-01T12:42:20.567Z,6.05
2018-04-01T12:43:20.583Z,6.06
2018-04-01T12:44:20.607Z,6.11
2018-04-01T12:45:20.626Z,6.25
2018-04-01T12:46:20.644Z,6.55
2018-04-01T12:47:20.658Z,6.54
2018-04-01T12:48:20.682Z,6.94
2018-04-01T12:49:20.702Z,7.19
2018-04-01T12:50:20.722Z,7.12
2018-04-01T12:51:20.742Z,7.29
2018-04-01T12:52:20.757Z,7.32
2018-04-01T12:53:20.778Z,7.60
2018-04-01T12:54:20.798Z,7.67
2018-04-01T12:55:20.816Z,7.51
2018-04-01T12:56:20.900Z,7.30
2018-04-01T12:57:20.861Z,7.26
2018-04-01T12:58:20.878Z,7.09
2018-04-01T12:59:20.903Z,6.97
2018-04-01T13:00:20.918Z,6.81
2018-04-01T13:01:20.936Z,6.96
2018-04-01T13:02:20.961Z,6.96
2018-04-01T13:03:20.976Z,7.05
2018-04-01T13:04:20.997Z,7.67
2018-04-01T13:05:21.020Z,7.62
2018-04-01T13:06:21.051Z,7.81
2018-04-01T13:07:21.058Z,9.24
2018-04-01T13:08:21.082Z,9.16
2018-04-01T13:09:21.101Z,9.27
2018-04-01T13:10:21.125Z,9.42
2018-04-01T13:11:21.148Z,9.34
2018-04-01T13:12:21.169Z,9.45
2018-04-01T13:13:21.191Z,9.55
2018-04-01T13:14:21.206Z,11.08
2018-04-01T13:15:21.231Z,11.69
2018-04-01T13:16:21.256Z,11.35
2018-04-01T13:17:21.280Z,11.42
2018-04-01T13:18:21.295Z,12.56